createdAt,value
2023-04-02T00:00:11.778Z,77.46
2023-04-02T00:03:01.669Z,77.80
2023-04-02T00:05:31.819Z,77.87
2023-04-02T00:08:20.725Z,78.28
2023-04-02T00:10:51.081Z,77.84
2023-04-02T00:13:33.752Z,77.44
2023-04-02T00:16:04.558Z,78.03
2023-04-02T00:18:36.209Z,77.99
2023-04-02T00:21:39.885Z,77.82
2023-04-02T00:24:16.161Z,77.57
2023-04-02T00:26:46.467Z,77.21
2023-04-02T00:29:16.094Z,77.45
2023-04-02T00:31:53.029Z,77.72
2023-04-02T00:34:26.393Z,78.16
2023-04-02T00:36:55.207Z,77.30
2023-04-02T00:39:30.016Z,77.71
2023-04-02T00:42:05.917Z,77.58
2023-04-02T00:44:42.982Z,77.29
2023-04-02T00:47:33.931Z,77.24
2023-04-02T00:50:19.538Z,77.48
2023-04-02T00:52:52.697Z,77.34
2023-04-02T00:55:24.055Z,77.22
2023-04-02T00:57:53.484Z,76.98
2023-04-02T01:00:30.142Z,77.02
2023-04-02T01:03:37.259Z,77.14
2023-04-02T01:06:16.156Z,77.18
2023-04-02T01:08:58.448Z,77.56
2023-04-02T01:11:46.651Z,77.07
2023-04-02T01:14:35.615Z,77.06
2023-04-02T01:17:20.122Z,76.97
2023-04-02T01:20:16.452Z,76.72
2023-04-02T01:23:06.050Z,77.03
2023-04-02T01:25:43.152Z,76.43
2023-04-02T01:28:22.641Z,76.15
2023-04-02T01:30:57.170Z,76.61
2023-04-02T01:33:33.226Z,76.46
2023-04-02T01:36:09.193Z,76.60
2023-04-02T01:39:03.856Z,76.41
2023-04-02T01:42:02.023Z,76.78
2023-04-02T01:44:40.648Z,76.89
2023-04-02T01:47:16.395Z,76.78
2023-04-02T01:49:46.514Z,77.09
2023-04-02T01:52:26.619Z,76.62
2023-04-02T01:54:57.200Z,76.99
2023-04-02T01:57:25.612Z,76.74
2023-04-02T01:59:54.924Z,77.08
2023-04-02T02:02:23.490Z,76.99
2023-04-02T02:04:51.918Z,76.68
2023-04-02T02:07:21.895Z,77.02
2023-04-02T02:09:50.516Z,77.15
2023-04-02T02:12:18.794Z,77.06
2023-04-02T02:14:52.491Z,76.97
2023-04-02T02:17:30.842Z,77.04
2023-04-02T02:20:00.839Z,76.86
2023-04-02T02:22:35.641Z,76.99
2023-04-02T02:25:07.641Z,77.18
2023-04-02T02:27:51.618Z,77.48
2023-04-02T02:30:29.252Z,77.36
2023-04-02T02:33:21.962Z,76.98
2023-04-02T02:36:05.084Z,77.06
2023-04-02T02:38:49.025Z,77.53
2023-04-02T02:41:19.940Z,77.22
2023-04-02T02:44:06.775Z,77.34
2023-04-02T02:46:38.274Z,77.43
2023-04-02T02:49:09.660Z,77.59
2023-04-02T02:52:00.723Z,77.59
2023-04-02T02:54:32.522Z,78.11
2023-04-02T02:57:06.224Z,78.19
2023-04-02T02:59:35.151Z,78.01
2023-04-02T03:02:07.333Z,78.05
2023-04-02T03:04:36.629Z,78.46
2023-04-02T03:07:09.243Z,78.44
2023-04-02T03:10:01.797Z,78.36
2023-04-02T03:12:35.079Z,78.41
2023-04-02T03:15:20.689Z,78.38
2023-04-02T03:17:53.707Z,78.79
2023-04-02T03:20:34.120Z,78.82
2023-04-02T03:23:24.905Z,78.86
2023-04-02T03:26:19.230Z,78.88
2023-04-02T03:29:01.965Z,79.17
2023-04-02T03:31:49.332Z,79.00
2023-04-02T03:34:20.345Z,78.92
2023-04-02T03:36:58.205Z,79.06
2023-04-02T03:39:36.807Z,79.07
2023-04-02T03:42:05.109Z,78.99
2023-04-02T03:44:59.188Z,79.18
2023-04-02T03:47:39.272Z,79.34
2023-04-02T03:50:15.722Z,79.37
2023-04-02T03:52:45.162Z,79.35
2023-04-02T03:55:22.531Z,79.56
2023-04-02T03:58:03.506Z,79.40
2023-04-02T04:00:39.025Z,79.52
2023-04-02T04:03:15.821Z,79.43
2023-04-02T04:05:59.864Z,79.85
2023-04-02T04:08:42.598Z,79.67
2023-04-02T04:11:17.095Z,79.69
2023-04-02T04:14:12.628Z,79.74
2023-04-02T04:17:04.718Z,79.81
2023-04-02T04:19:55.654Z,79.90
2023-04-02T04:22:34.187Z,79.67
2023-04-02T04:25:07.051Z,79.93
2023-04-02T04:27:58.743Z,80.01
2023-04-02T04:30:42.227Z,80.02
2023-04-02T04:33:23.304Z,79.98
2023-04-02T04:36:00.349Z,80.03
2023-04-02T04:38:39.658Z,80.22
2023-04-02T04:41:22.822Z,79.99
2023-04-02T04:44:07.866Z,80.00
2023-04-02T04:46:43.190Z,80.04
2023-04-02T04:49:17.329Z,79.86
2023-04-02T04:51:51.258Z,79.89
2023-04-02T04:54:20.602Z,79.96
2023-04-02T04:56:54.947Z,79.95
2023-04-02T04:59:47.771Z,79.71
2023-04-02T05:02:27.027Z,79.84
2023-04-02T05:04:56.080Z,79.53
2023-04-02T05:07:44.188Z,79.63
2023-04-02T05:10:25.085Z,79.72
2023-04-02T05:13:11.007Z,79.96
2023-04-02T05:15:46.067Z,79.60
2023-04-02T05:18:34.408Z,79.99
2023-04-02T05:21:36.920Z,79.68
2023-04-02T05:24:31.411Z,79.49
2023-04-02T05:27:36.172Z,79.61
2023-04-02T05:30:49.620Z,79.59
2023-04-02T05:33:29.202Z,79.71
2023-04-02T05:36:11.860Z,79.37
2023-04-02T05:38:46.688Z,79.78
2023-04-02T05:41:32.417Z,79.69
2023-04-02T05:44:16.693Z,79.21
2023-04-02T05:46:57.455Z,79.09
2023-04-02T05:50:07.850Z,79.03
2023-04-02T05:52:42.743Z,79.25
2023-04-02T05:55:13.834Z,78.89
2023-04-02T05:58:13.296Z,79.12
2023-04-02T06:00:55.478Z,78.93
2023-04-02T06:03:42.048Z,78.35
2023-04-02T06:06:23.426Z,78.61
2023-04-02T06:08:58.552Z,78.30
2023-04-02T06:11:32.995Z,78.38
2023-04-02T06:14:01.296Z,78.29
2023-04-02T06:16:32.147Z,78.45
2023-04-02T06:19:00.582Z,78.63
2023-04-02T06:21:28.977Z,77.84
2023-04-02T06:24:02.664Z,77.40
2023-04-02T06:26:41.935Z,77.39
2023-04-02T06:29:20.475Z,77.57
2023-04-02T06:31:54.239Z,77.02
2023-04-02T06:34:24.894Z,76.95
2023-04-02T06:36:58.619Z,76.86
2023-04-02T06:39:29.384Z,76.67
2023-04-02T06:42:19.662Z,76.50
2023-04-02T06:44:48.682Z,75.92
2023-04-02T06:47:26.747Z,75.62
2023-04-02T06:50:36.220Z,75.26
2023-04-02T06:53:06.703Z,75.06
2023-04-02T06:55:52.926Z,75.41
2023-04-02T06:58:21.461Z,75.76
2023-04-02T07:00:51.271Z,75.44
2023-04-02T07:03:34.885Z,75.54
2023-04-02T07:06:03.921Z,75.57
2023-04-02T07:08:32.169Z,75.39
2023-04-02T07:11:00.959Z,75.44
2023-04-02T07:13:29.903Z,74.95
2023-04-02T07:15:58.520Z,75.16
2023-04-02T07:18:28.686Z,74.85
2023-04-02T07:20:57.133Z,75.25
2023-04-02T07:23:26.224Z,75.40
2023-04-02T07:25:56.435Z,75.22
2023-04-02T07:28:26.074Z,75.34
2023-04-02T07:30:55.127Z,73.67
2023-04-02T07:33:29.827Z,74.15
2023-04-02T07:35:58.873Z,74.41
2023-04-02T07:38:27.362Z,73.67
2023-04-02T07:40:55.785Z,74.25
2023-04-02T07:43:24.020Z,74.77
2023-04-02T07:45:52.386Z,74.77
2023-04-02T07:48:20.804Z,74.45
2023-04-02T07:50:49.241Z,73.56
2023-04-02T07:53:34.585Z,73.34
2023-04-02T07:56:04.415Z,73.31
2023-04-02T07:58:33.227Z,74.01
2023-04-02T08:01:03.913Z,73.93
2023-04-02T08:03:33.168Z,73.06
2023-04-02T08:06:01.500Z,71.63
2023-04-02T08:08:29.858Z,70.84
2023-04-02T08:10:58.164Z,69.70
2023-04-02T08:13:26.528Z,70.21
2023-04-02T08:15:54.799Z,69.99
2023-04-02T08:18:23.841Z,70.07
2023-04-02T08:20:53.245Z,70.34
2023-04-02T08:23:21.907Z,71.27
2023-04-02T08:25:51.196Z,71.76
2023-04-02T08:28:19.820Z,71.08
2023-04-02T08:30:49.447Z,69.55
2023-04-02T08:33:18.367Z,69.85
2023-04-02T08:35:48.064Z,68.34
2023-04-02T08:38:18.922Z,68.88
2023-04-02T08:40:52.505Z,68.78
2023-04-02T08:43:56.408Z,69.47
2023-04-02T08:46:33.610Z,70.28
2023-04-02T08:49:10.774Z,70.52
2023-04-02T08:51:39.348Z,67.58
2023-04-02T08:54:18.748Z,67.94
2023-04-02T08:56:56.130Z,67.72
2023-04-02T08:59:34.070Z,67.00
2023-04-02T09:02:14.244Z,65.97
2023-04-02T09:04:43.007Z,66.01
2023-04-02T09:07:14.675Z,66.10
2023-04-02T09:09:44.029Z,66.37
2023-04-02T09:12:24.288Z,65.27
2023-04-02T09:15:01.946Z,63.88
2023-04-02T09:17:36.941Z,65.23
2023-04-02T09:20:21.652Z,65.06
2023-04-02T09:22:52.003Z,66.29
2023-04-02T09:25:32.959Z,66.11
2023-04-02T09:28:04.443Z,66.34
2023-04-02T09:30:32.648Z,66.17
2023-04-02T09:33:08.078Z,65.02
2023-04-02T09:35:51.613Z,65.11
2023-04-02T09:38:23.634Z,64.42
2023-04-02T09:40:54.893Z,63.90
2023-04-02T09:43:26.443Z,64.13
2023-04-02T09:46:13.128Z,63.22
2023-04-02T09:48:45.945Z,62.34
2023-04-02T09:51:25.987Z,63.24
2023-04-02T09:54:03.274Z,61.88
2023-04-02T09:56:34.061Z,62.42
2023-04-02T09:59:16.326Z,63.12
2023-04-02T10:01:50.326Z,62.96
2023-04-02T10:04:33.682Z,63.90
2023-04-02T10:07:03.373Z,63.52
2023-04-02T10:09:37.194Z,62.57
2023-04-02T10:12:12.784Z,62.37
2023-04-02T10:14:46.544Z,61.00
2023-04-02T10:17:18.207Z,61.86
2023-04-02T10:20:01.801Z,61.24
2023-04-02T10:22:30.790Z,61.63
2023-04-02T10:24:59.611Z,62.03
2023-04-02T10:27:59.588Z,62.73
2023-04-02T10:30:39.414Z,62.45
2023-04-02T10:33:21.741Z,62.00
2023-04-02T10:36:12.048Z,62.45
2023-04-02T10:39:00.158Z,61.61
2023-04-02T10:41:33.239Z,60.27
2023-04-02T10:44:20.800Z,61.63
2023-04-02T10:46:54.265Z,60.72
2023-04-02T10:49:43.702Z,60.53
2023-04-02T10:52:30.969Z,61.11
2023-04-02T10:55:04.714Z,60.83
2023-04-02T10:57:41.618Z,60.67
2023-04-02T11:00:16.017Z,60.05
2023-04-02T11:02:59.688Z,60.90
2023-04-02T11:05:44.151Z,60.58
2023-04-02T11:08:46.328Z,59.52
2023-04-02T11:11:28.319Z,60.17
2023-04-02T11:14:17.390Z,60.32
2023-04-02T11:16:48.713Z,61.12
2023-04-02T11:19:17.221Z,61.36
2023-04-02T11:22:25.773Z,61.04
2023-04-02T11:24:56.659Z,60.29
2023-04-02T11:27:29.398Z,59.53
2023-04-02T11:30:16.816Z,60.36
2023-04-02T11:32:50.338Z,60.90
2023-04-02T11:35:39.763Z,61.08
2023-04-02T11:38:11.433Z,59.13
2023-04-02T11:40:46.216Z,59.54
2023-04-02T11:43:32.997Z,60.14
2023-04-02T11:46:16.904Z,59.92
2023-04-02T11:48:45.434Z,58.40
2023-04-02T11:51:23.131Z,59.55
2023-04-02T11:53:58.643Z,59.72
2023-04-02T11:56:32.731Z,59.46
2023-04-02T11:59:22.631Z,59.84
2023-04-02T12:01:57.791Z,60.00
2023-04-02T12:05:05.296Z,58.77
2023-04-02T12:08:10.351Z,60.23
2023-04-02T12:11:00.683Z,59.83
2023-04-02T12:14:02.114Z,58.15
2023-04-02T12:16:34.309Z,56.91
2023-04-02T12:19:08.202Z,56.39
2023-04-02T12:21:38.172Z,56.08
2023-04-02T12:24:13.070Z,56.67
2023-04-02T12:26:42.716Z,57.81
2023-04-02T12:29:28.082Z,58.66
2023-04-02T12:31:59.307Z,58.90
2023-04-02T12:34:30.337Z,57.85
2023-04-02T12:37:04.307Z,57.30
2023-04-02T12:39:34.269Z,58.08
2023-04-02T12:42:02.608Z,58.24
2023-04-02T12:44:31.583Z,57.03
2023-04-02T12:47:00.617Z,56.40
2023-04-02T12:49:35.427Z,57.69
2023-04-02T12:52:16.641Z,56.99
2023-04-02T12:54:51.815Z,57.03
2023-04-02T12:57:41.097Z,56.37
2023-04-02T13:00:22.041Z,57.43
2023-04-02T13:03:03.526Z,56.24
2023-04-02T13:05:56.677Z,57.74
2023-04-02T13:08:27.654Z,57.14
2023-04-02T13:11:04.308Z,57.97
2023-04-02T13:13:44.389Z,55.24
2023-04-02T13:16:15.484Z,56.34
2023-04-02T13:18:48.991Z,56.59
2023-04-02T13:21:17.791Z,56.58
2023-04-02T13:23:46.740Z,56.80
2023-04-02T13:26:20.193Z,57.05
2023-04-02T13:29:19.615Z,58.00
2023-04-02T13:31:48.772Z,56.88
2023-04-02T13:34:18.567Z,56.25
2023-04-02T13:36:47.551Z,56.37
2023-04-02T13:39:16.534Z,55.97
2023-04-02T13:41:48.125Z,56.36
2023-04-02T13:44:30.164Z,56.04
2023-04-02T13:47:00.865Z,55.77
2023-04-02T13:49:29.584Z,55.66
2023-04-02T13:52:03.441Z,55.52
2023-04-02T13:54:51.825Z,54.90
2023-04-02T13:57:20.205Z,55.44
2023-04-02T13:59:48.411Z,56.01
2023-04-02T14:02:20.841Z,57.05
2023-04-02T14:04:56.989Z,56.77
2023-04-02T14:07:31.051Z,55.79
2023-04-02T14:10:09.197Z,54.93
2023-04-02T14:13:25.669Z,54.21
2023-04-02T14:16:16.571Z,54.42
2023-04-02T14:18:54.093Z,54.51
2023-04-02T14:21:31.599Z,53.90
2023-04-02T14:24:19.116Z,54.98
2023-04-02T14:27:06.092Z,54.35
2023-04-02T14:29:34.575Z,53.54
2023-04-02T14:32:27.430Z,53.25
2023-04-02T14:35:14.570Z,54.50
2023-04-02T14:37:45.527Z,53.58
2023-04-02T14:40:28.561Z,53.33
2023-04-02T14:43:24.140Z,53.85
2023-04-02T14:46:08.220Z,52.68
2023-04-02T14:48:56.543Z,52.08
2023-04-02T14:51:36.433Z,52.26
2023-04-02T14:54:18.203Z,50.83
2023-04-02T14:56:55.229Z,50.51
2023-04-02T14:59:34.239Z,51.07
2023-04-02T15:02:24.667Z,51.97
2023-04-02T15:05:19.336Z,51.15
2023-04-02T15:07:58.039Z,49.17
2023-04-02T15:10:36.985Z,49.37
2023-04-02T15:13:13.731Z,50.00
2023-04-02T15:15:56.671Z,50.65
2023-04-02T15:18:25.835Z,51.27
2023-04-02T15:21:16.897Z,51.37
2023-04-02T15:24:04.468Z,50.38
2023-04-02T15:26:44.722Z,50.89
2023-04-02T15:29:29.196Z,51.60
2023-04-02T15:32:26.100Z,49.96
2023-04-02T15:35:03.539Z,49.05
2023-04-02T15:38:12.219Z,50.34
2023-04-02T15:40:52.835Z,51.06
2023-04-02T15:43:31.731Z,51.79
2023-04-02T15:46:12.130Z,50.55
2023-04-02T15:49:13.420Z,49.87
2023-04-02T15:51:55.511Z,49.94
2023-04-02T15:55:00.788Z,49.63
2023-04-02T15:57:59.185Z,50.06
2023-04-02T16:00:31.034Z,50.11
2023-04-02T16:03:06.727Z,49.93
2023-04-02T16:06:00.864Z,50.42
2023-04-02T16:08:57.409Z,50.79
2023-04-02T16:11:27.458Z,51.30
2023-04-02T16:14:01.470Z,51.68
2023-04-02T16:16:36.240Z,50.82
2023-04-02T16:19:29.140Z,50.71
2023-04-02T16:22:14.775Z,51.38
2023-04-02T16:24:43.337Z,50.76
2023-04-02T16:27:29.916Z,50.40
2023-04-02T16:30:07.115Z,51.39
2023-04-02T16:33:13.297Z,52.38
2023-04-02T16:35:43.418Z,52.01
2023-04-02T16:38:36.951Z,51.62
2023-04-02T16:41:19.573Z,52.09
2023-04-02T16:43:56.842Z,52.15
2023-04-02T16:47:00.622Z,52.50
2023-04-02T16:49:48.292Z,53.48
2023-04-02T16:52:34.115Z,54.51
2023-04-02T16:55:31.665Z,53.42
2023-04-02T16:58:10.636Z,54.00
2023-04-02T17:00:56.410Z,54.34
2023-04-02T17:03:57.705Z,54.87
2023-04-02T17:06:42.924Z,55.38
2023-04-02T17:09:11.189Z,55.45
2023-04-02T17:12:17.816Z,55.76
2023-04-02T17:14:58.870Z,56.35
2023-04-02T17:17:31.121Z,56.72
2023-04-02T17:20:01.453Z,57.36
2023-04-02T17:22:31.947Z,57.65
2023-04-02T17:25:04.043Z,58.05
2023-04-02T17:27:43.958Z,58.32
2023-04-02T17:30:23.796Z,58.65
2023-04-02T17:32:52.414Z,58.46
2023-04-02T17:35:42.731Z,59.07
2023-04-02T17:38:33.193Z,59.03
2023-04-02T17:41:29.160Z,59.74
2023-04-02T17:44:30.183Z,59.91
2023-04-02T17:50:25.815Z,60.43
2023-04-02T17:53:20.821Z,60.12
2023-04-02T17:56:01.148Z,60.61
2023-04-02T17:58:38.558Z,61.11
2023-04-02T18:01:59.820Z,61.23
2023-04-02T18:04:54.283Z,61.63
2023-04-02T18:07:25.627Z,61.97
2023-04-02T18:10:04.257Z,61.67
2023-04-02T18:13:23.717Z,62.34
2023-04-02T18:16:17.902Z,62.24
2023-04-02T18:18:48.818Z,62.41
2023-04-02T18:21:23.371Z,62.97
2023-04-02T18:24:20.978Z,63.29
2023-04-02T18:26:52.301Z,63.59
2023-04-02T18:29:42.315Z,63.72
2023-04-02T18:32:29.420Z,63.69
2023-04-02T18:35:19.177Z,64.20
2023-04-02T18:38:16.730Z,64.41
2023-04-02T18:41:13.118Z,65.51
2023-04-02T18:43:50.467Z,65.56
2023-04-02T18:46:33.653Z,65.64
2023-04-02T18:49:21.874Z,66.40
2023-04-02T18:51:56.051Z,65.98
2023-04-02T18:54:27.188Z,66.06
2023-04-02T18:56:55.924Z,66.38
2023-04-02T18:59:57.049Z,66.77
2023-04-02T19:02:34.740Z,66.84
2023-04-02T19:05:34.616Z,66.93
2023-04-02T19:08:43.813Z,66.77
2023-04-02T19:11:18.940Z,66.93
2023-04-02T19:13:49.189Z,67.31
2023-04-02T19:16:17.495Z,67.16
2023-04-02T19:19:11.781Z,66.94
2023-04-02T19:21:53.208Z,67.64
2023-04-02T19:24:33.916Z,67.23
2023-04-02T19:27:20.506Z,67.40
2023-04-02T19:30:06.673Z,67.53
2023-04-02T19:33:09.111Z,67.96
2023-04-02T19:35:59.008Z,67.92
2023-04-02T19:38:42.848Z,68.20
2023-04-02T19:41:16.977Z,68.28
2023-04-02T19:43:45.749Z,68.56
2023-04-02T19:46:14.412Z,68.52
2023-04-02T19:48:48.996Z,68.49
2023-04-02T19:51:17.381Z,68.72
2023-04-02T19:53:45.873Z,68.58
2023-04-02T19:56:14.151Z,68.59
2023-04-02T19:58:42.463Z,68.68
2023-04-02T20:01:11.058Z,68.86
2023-04-02T20:03:39.418Z,68.92
2023-04-02T20:06:07.750Z,68.96
2023-04-02T20:08:39.288Z,69.12
2023-04-02T20:11:07.707Z,69.18
2023-04-02T20:13:36.120Z,69.27
2023-04-02T20:16:06.695Z,68.89
2023-04-02T20:18:37.325Z,69.08
2023-04-02T20:21:07.143Z,69.20
2023-04-02T20:23:36.445Z,68.91
2023-04-02T20:26:05.541Z,69.08
2023-04-02T20:28:34.002Z,69.17
2023-04-02T20:31:08.072Z,69.19
2023-04-02T20:33:37.505Z,69.14
2023-04-02T20:36:09.178Z,69.36
2023-04-02T20:38:37.902Z,69.41
2023-04-02T20:41:07.809Z,69.36
2023-04-02T20:43:37.832Z,69.26
2023-04-02T20:46:09.518Z,69.42
2023-04-02T20:48:39.245Z,69.28
2023-04-02T20:51:09.919Z,69.20
2023-04-02T20:53:39.020Z,69.38
2023-04-02T20:56:19.226Z,69.64
2023-04-02T20:58:47.511Z,69.67
2023-04-02T21:01:26.174Z,69.67
2023-04-02T21:04:00.062Z,69.83
2023-04-02T21:06:36.716Z,70.03
2023-04-02T21:09:08.759Z,69.90
2023-04-02T21:11:37.614Z,69.78
2023-04-02T21:14:07.363Z,69.92
2023-04-02T21:16:35.961Z,69.69
2023-04-02T21:19:08.246Z,69.66
2023-04-02T21:21:38.550Z,69.52
2023-04-02T21:24:09.837Z,69.91
2023-04-02T21:26:40.708Z,69.70
2023-04-02T21:29:09.229Z,69.79
2023-04-02T21:31:39.685Z,69.73
2023-04-02T21:34:11.526Z,69.85
2023-04-02T21:36:42.692Z,69.71
2023-04-02T21:39:16.756Z,69.76
2023-04-02T21:41:47.563Z,69.76
2023-04-02T21:44:19.213Z,69.60
2023-04-02T21:46:48.965Z,69.68
2023-04-02T21:49:20.193Z,69.62
2023-04-02T21:51:49.494Z,69.70
2023-04-02T21:54:18.245Z,69.52
2023-04-02T21:56:47.747Z,69.64
2023-04-02T21:59:17.799Z,69.73
2023-04-02T22:01:49.100Z,69.94
2023-04-02T22:04:23.849Z,69.98
2023-04-02T22:06:53.484Z,70.00
2023-04-02T22:09:25.965Z,70.30
2023-04-02T22:11:59.420Z,70.32
2023-04-02T22:14:28.642Z,70.47
2023-04-02T22:16:58.998Z,70.66
2023-04-02T22:19:27.742Z,70.56
2023-04-02T22:21:57.079Z,70.63
2023-04-02T22:24:25.602Z,70.67
2023-04-02T22:26:54.482Z,70.65
2023-04-02T22:29:22.745Z,70.78
2023-04-02T22:31:51.436Z,70.71
2023-04-02T22:34:19.978Z,70.66
2023-04-02T22:36:48.343Z,70.59
2023-04-02T22:39:17.267Z,70.55
2023-04-02T22:41:45.556Z,70.53
2023-04-02T22:44:17.215Z,70.49
2023-04-02T22:46:45.552Z,70.57
2023-04-02T22:49:19.518Z,70.55
2023-04-02T22:51:48.003Z,70.55
2023-04-02T22:54:16.398Z,70.49
2023-04-02T22:56:44.745Z,70.73
2023-04-02T22:59:13.077Z,70.65
2023-04-02T23:01:41.744Z,70.65
2023-04-02T23:04:10.100Z,70.62
2023-04-02T23:06:38.444Z,70.68
2023-04-02T23:09:06.734Z,70.87
2023-04-02T23:11:35.069Z,70.90
2023-04-02T23:14:03.427Z,70.83
2023-04-02T23:16:31.867Z,70.95
2023-04-02T23:19:00.287Z,71.10
2023-04-02T23:21:28.547Z,71.28
2023-04-02T23:23:57.424Z,71.19
2023-04-02T23:26:31.557Z,71.37
2023-04-02T23:29:00.972Z,71.11
2023-04-02T23:31:29.967Z,71.16
2023-04-02T23:33:58.741Z,71.21
2023-04-02T23:36:29.486Z,71.21
2023-04-02T23:39:11.482Z,71.10
2023-04-02T23:41:42.883Z,71.24
2023-04-02T23:44:11.432Z,71.36
2023-04-02T23:46:39.722Z,71.40
2023-04-02T23:49:12.003Z,71.38
2023-04-02T23:51:40.877Z,71.43
2023-04-02T23:54:11.983Z,71.41
2023-04-02T23:56:41.216Z,71.60
2023-04-02T23:59:09.524Z,71.50
